sensor_id;sensor_type;location;lat;lon;timestamp;P1;durP1;ratioP1;P2;durP2;ratioP2
65092;SDS011;52025;50.288;2.794;2022-10-19T05:09:52;12.70;;;6.45;;
65092;SDS011;52025;50.288;2.794;2022-10-19T05:12:17;15.35;;;6.25;;
65092;SDS011;52025;50.288;2.794;2022-10-19T05:14:43;13.48;;;7.03;;
65092;SDS011;52025;50.288;2.794;2022-10-19T05:17:08;15.05;;;6.88;;
65092;SDS011;52025;50.288;2.794;2022-10-19T05:19:33;13.18;;;6.57;;
65092;SDS011;52025;50.288;2.794;2022-10-19T05:21:58;16.80;;;7.18;;
65092;SDS011;52025;50.288;2.794;2022-10-19T05:24:24;14.60;;;6.68;;
65092;SDS011;52025;50.288;2.794;2022-10-19T05:26:49;13.43;;;7.13;;
65092;SDS011;52025;50.288;2.794;2022-10-19T05:29:14;15.30;;;6.90;;
65092;SDS011;52025;50.288;2.794;2022-10-19T05:31:40;13.98;;;6.90;;
65092;SDS011;52025;50.288;2.794;2022-10-19T05:34:05;15.27;;;7.13;;
65092;SDS011;52025;50.288;2.794;2022-10-19T05:36:31;13.57;;;7.00;;
65092;SDS011;52025;50.288;2.794;2022-10-19T05:38:59;15.68;;;8.18;;
65092;SDS011;52025;50.288;2.794;2022-10-19T05:41:25;16.58;;;7.30;;
65092;SDS011;52025;50.288;2.794;2022-10-19T05:43:51;16.98;;;7.55;;
65092;SDS011;52025;50.288;2.794;2022-10-19T05:46:17;14.98;;;6.80;;
65092;SDS011;52025;50.288;2.794;2022-10-19T05:48:42;17.67;;;6.97;;
65092;SDS011;52025;50.288;2.794;2022-10-19T05:51:09;14.90;;;7.25;;
65092;SDS011;52025;50.288;2.794;2022-10-19T05:53:34;14.50;;;6.53;;
65092;SDS011;52025;50.288;2.794;2022-10-19T05:56:00;14.82;;;7.35;;
65092;SDS011;52025;50.288;2.794;2022-10-19T05:58:25;16.45;;;6.95;;
65092;SDS011;52025;50.288;2.794;2022-10-19T06:00:55;13.98;;;6.95;;
65092;SDS011;52025;50.288;2.794;2022-10-19T06:03:21;10.90;;;6.03;;
65092;SDS011;52025;50.288;2.794;2022-10-19T06:05:49;13.93;;;6.00;;
65092;SDS011;52025;50.288;2.794;2022-10-19T06:08:15;17.15;;;6.85;;
65092;SDS011;52025;50.288;2.794;2022-10-19T06:10:40;14.85;;;6.85;;
65092;SDS011;52025;50.288;2.794;2022-10-19T06:13:07;15.60;;;6.85;;
65092;SDS011;52025;50.288;2.794;2022-10-19T06:15:32;17.77;;;7.57;;
65092;SDS011;52025;50.288;2.794;2022-10-19T06:17:58;18.98;;;8.10;;
65092;SDS011;52025;50.288;2.794;2022-10-19T06:20:24;14.37;;;6.60;;
65092;SDS011;52025;50.288;2.794;2022-10-19T06:22:53;16.83;;;7.57;;
65092;SDS011;52025;50.288;2.794;2022-10-19T06:25:18;16.27;;;6.20;;
65092;SDS011;52025;50.288;2.794;2022-10-19T06:27:43;14.33;;;6.27;;
65092;SDS011;52025;50.288;2.794;2022-10-19T06:30:09;13.30;;;6.47;;
65092;SDS011;52025;50.288;2.794;2022-10-19T06:32:34;16.25;;;6.75;;
65092;SDS011;52025;50.288;2.794;2022-10-19T06:34:59;12.60;;;6.43;;
65092;SDS011;52025;50.288;2.794;2022-10-19T06:37:25;14.80;;;6.57;;
65092;SDS011;52025;50.288;2.794;2022-10-19T06:39:50;14.47;;;6.33;;
65092;SDS011;52025;50.288;2.794;2022-10-19T06:42:15;13.50;;;6.60;;
65092;SDS011;52025;50.288;2.794;2022-10-19T06:44:40;14.43;;;7.05;;
65092;SDS011;52025;50.288;2.794;2022-10-19T06:47:06;16.83;;;7.27;;
65092;SDS011;52025;50.288;2.794;2022-10-19T06:49:31;14.13;;;7.27;;
65092;SDS011;52025;50.288;2.794;2022-10-19T06:51:59;14.48;;;6.72;;
65092;SDS011;52025;50.288;2.794;2022-10-19T06:54:24;11.23;;;6.37;;
65092;SDS011;52025;50.288;2.794;2022-10-19T06:56:50;14.73;;;6.85;;
65092;SDS011;52025;50.288;2.794;2022-10-19T06:59:15;13.10;;;6.47;;
65092;SDS011;52025;50.288;2.794;2022-10-19T07:01:41;15.30;;;6.72;;
65092;SDS011;52025;50.288;2.794;2022-10-19T07:04:06;13.60;;;6.30;;
65092;SDS011;52025;50.288;2.794;2022-10-19T07:06:32;15.07;;;7.07;;
65092;SDS011;52025;50.288;2.794;2022-10-19T07:08:57;13.73;;;6.63;;
65092;SDS011;52025;50.288;2.794;2022-10-19T07:11:22;13.60;;;6.93;;
65092;SDS011;52025;50.288;2.794;2022-10-19T07:13:47;16.50;;;7.00;;
65092;SDS011;52025;50.288;2.794;2022-10-19T07:16:14;15.75;;;6.93;;
65092;SDS011;52025;50.288;2.794;2022-10-19T07:18:39;14.07;;;6.70;;
65092;SDS011;52025;50.288;2.794;2022-10-19T07:21:05;20.42;;;7.65;;
65092;SDS011;52025;50.288;2.794;2022-10-19T07:23:31;13.82;;;6.97;;
65092;SDS011;52025;50.288;2.794;2022-10-19T07:25:57;14.52;;;6.82;;
65092;SDS011;52025;50.288;2.794;2022-10-19T07:28:28;17.58;;;7.35;;
65092;SDS011;52025;50.288;2.794;2022-10-19T07:30:54;16.27;;;7.97;;
65092;SDS011;52025;50.288;2.794;2022-10-19T07:33:19;16.05;;;7.15;;
65092;SDS011;52025;50.288;2.794;2022-10-19T07:35:44;15.30;;;7.40;;
65092;SDS011;52025;50.288;2.794;2022-10-19T07:38:10;15.43;;;7.40;;
65092;SDS011;52025;50.288;2.794;2022-10-19T07:40:35;17.52;;;7.70;;
65092;SDS011;52025;50.288;2.794;2022-10-19T07:43:00;14.15;;;7.07;;
65092;SDS011;52025;50.288;2.794;2022-10-19T07:45:25;16.60;;;8.15;;
65092;SDS011;52025;50.288;2.794;2022-10-19T07:47:51;16.60;;;7.68;;
65092;SDS011;52025;50.288;2.794;2022-10-19T07:50:16;13.38;;;6.75;;
65092;SDS011;52025;50.288;2.794;2022-10-19T07:52:41;16.90;;;8.20;;
65092;SDS011;52025;50.288;2.794;2022-10-19T07:55:07;14.93;;;6.65;;
65092;SDS011;52025;50.288;2.794;2022-10-19T07:57:32;16.02;;;7.93;;
65092;SDS011;52025;50.288;2.794;2022-10-19T07:59:57;14.23;;;6.80;;
65092;SDS011;52025;50.288;2.794;2022-10-19T08:02:22;17.23;;;8.30;;
65092;SDS011;52025;50.288;2.794;2022-10-19T08:04:48;14.88;;;7.47;;
65092;SDS011;52025;50.288;2.794;2022-10-19T08:07:13;16.93;;;7.93;;
65092;SDS011;52025;50.288;2.794;2022-10-19T08:09:38;14.02;;;7.47;;
65092;SDS011;52025;50.288;2.794;2022-10-19T08:12:04;14.00;;;7.72;;
65092;SDS011;52025;50.288;2.794;2022-10-19T08:14:29;16.90;;;8.27;;
65092;SDS011;52025;50.288;2.794;2022-10-19T08:16:54;20.17;;;10.57;;
65092;SDS011;52025;50.288;2.794;2022-10-19T08:19:19;20.60;;;9.57;;
65092;SDS011;52025;50.288;2.794;2022-10-19T08:21:46;17.45;;;8.63;;
65092;SDS011;52025;50.288;2.794;2022-10-19T08:24:12;15.73;;;7.72;;
65092;SDS011;52025;50.288;2.794;2022-10-19T08:26:38;15.32;;;7.75;;
65092;SDS011;52025;50.288;2.794;2022-10-19T08:29:05;14.98;;;8.25;;
65092;SDS011;52025;50.288;2.794;2022-10-19T08:31:31;15.55;;;7.85;;
65092;SDS011;52025;50.288;2.794;2022-10-19T08:33:56;17.65;;;7.75;;
65092;SDS011;52025;50.288;2.794;2022-10-19T08:36:21;17.48;;;7.25;;
65092;SDS011;52025;50.288;2.794;2022-10-19T08:38:47;14.20;;;7.30;;
65092;SDS011;52025;50.288;2.794;2022-10-19T08:44:14;15.40;;;8.57;;
65092;SDS011;52025;50.288;2.794;2022-10-19T08:49:31;18.35;;;9.07;;
65092;SDS011;52025;50.288;2.794;2022-10-19T08:52:04;13.18;;;7.38;;
65092;SDS011;52025;50.288;2.794;2022-10-19T08:54:40;17.58;;;9.18;;
65092;SDS011;52025;50.288;2.794;2022-10-19T09:00:02;19.33;;;9.68;;
65092;SDS011;52025;50.288;2.794;2022-10-19T09:03:32;19.85;;;9.02;;
65092;SDS011;52025;50.288;2.794;2022-10-19T09:08:02;19.13;;;10.40;;
65092;SDS011;52025;50.288;2.794;2022-10-19T09:10:29;18.05;;;10.15;;
65092;SDS011;52025;50.288;2.794;2022-10-19T09:12:56;19.42;;;9.75;;
65092;SDS011;52025;50.288;2.794;2022-10-19T09:15:27;27.45;;;12.85;;
65092;SDS011;52025;50.288;2.794;2022-10-19T09:17:56;24.58;;;12.27;;
65092;SDS011;52025;50.288;2.794;2022-10-19T09:20:24;18.30;;;9.82;;
65092;SDS011;52025;50.288;2.794;2022-10-19T09:23:03;16.33;;;7.47;;
65092;SDS011;52025;50.288;2.794;2022-10-19T09:25:31;18.92;;;9.23;;
65092;SDS011;52025;50.288;2.794;2022-10-19T09:27:59;22.13;;;10.05;;
65092;SDS011;52025;50.288;2.794;2022-10-19T09:30:27;13.90;;;7.00;;
65092;SDS011;52025;50.288;2.794;2022-10-19T09:33:00;18.63;;;9.43;;
65092;SDS011;52025;50.288;2.794;2022-10-19T09:35:36;13.30;;;7.38;;
65092;SDS011;52025;50.288;2.794;2022-10-19T09:38:03;18.70;;;9.75;;
65092;SDS011;52025;50.288;2.794;2022-10-19T09:40:29;17.98;;;9.40;;
65092;SDS011;52025;50.288;2.794;2022-10-19T09:42:55;14.18;;;6.65;;
65092;SDS011;52025;50.288;2.794;2022-10-19T09:47:52;13.10;;;6.70;;
65092;SDS011;52025;50.288;2.794;2022-10-19T09:50:18;14.13;;;7.47;;
65092;SDS011;52025;50.288;2.794;2022-10-19T09:52:51;17.05;;;8.07;;
65092;SDS011;52025;50.288;2.794;2022-10-19T09:55:18;15.80;;;7.60;;
65092;SDS011;52025;50.288;2.794;2022-10-19T09:57:47;15.73;;;8.00;;
65092;SDS011;52025;50.288;2.794;2022-10-19T10:00:20;16.13;;;8.40;;
65092;SDS011;52025;50.288;2.794;2022-10-19T10:02:49;16.58;;;8.25;;
65092;SDS011;52025;50.288;2.794;2022-10-19T10:05:15;17.25;;;8.77;;
65092;SDS011;52025;50.288;2.794;2022-10-19T10:07:40;16.05;;;7.68;;
65092;SDS011;52025;50.288;2.794;2022-10-19T10:10:19;14.93;;;7.57;;
65092;SDS011;52025;50.288;2.794;2022-10-19T10:12:45;19.13;;;9.38;;
65092;SDS011;52025;50.288;2.794;2022-10-19T10:15:18;20.10;;;9.20;;
65092;SDS011;52025;50.288;2.794;2022-10-19T10:17:46;18.17;;;8.70;;
65092;SDS011;52025;50.288;2.794;2022-10-19T10:20:28;16.00;;;8.45;;
65092;SDS011;52025;50.288;2.794;2022-10-19T10:23:03;18.42;;;8.35;;
65092;SDS011;52025;50.288;2.794;2022-10-19T10:25:33;15.27;;;9.82;;
65092;SDS011;52025;50.288;2.794;2022-10-19T10:28:01;17.23;;;9.18;;
65092;SDS011;52025;50.288;2.794;2022-10-19T10:30:28;16.17;;;8.02;;
65092;SDS011;52025;50.288;2.794;2022-10-19T10:32:54;16.73;;;8.57;;
65092;SDS011;52025;50.288;2.794;2022-10-19T10:35:22;14.55;;;8.20;;
65092;SDS011;52025;50.288;2.794;2022-10-19T10:37:48;18.98;;;8.85;;
65092;SDS011;52025;50.288;2.794;2022-10-19T10:40:25;17.63;;;8.73;;
65092;SDS011;52025;50.288;2.794;2022-10-19T10:42:52;15.50;;;8.00;;
65092;SDS011;52025;50.288;2.794;2022-10-19T10:45:23;16.95;;;8.18;;
65092;SDS011;52025;50.288;2.794;2022-10-19T10:47:49;14.23;;;7.32;;
65092;SDS011;52025;50.288;2.794;2022-10-19T10:50:15;17.13;;;9.32;;
65092;SDS011;52025;50.288;2.794;2022-10-19T10:52:42;15.52;;;8.80;;
65092;SDS011;52025;50.288;2.794;2022-10-19T10:55:20;17.35;;;9.23;;
65092;SDS011;52025;50.288;2.794;2022-10-19T10:57:46;16.95;;;9.07;;
65092;SDS011;52025;50.288;2.794;2022-10-19T11:00:16;17.55;;;8.77;;
65092;SDS011;52025;50.288;2.794;2022-10-19T11:02:44;13.32;;;7.30;;
65092;SDS011;52025;50.288;2.794;2022-10-19T11:07:42;15.52;;;8.38;;
65092;SDS011;52025;50.288;2.794;2022-10-19T11:10:27;16.63;;;8.63;;
65092;SDS011;52025;50.288;2.794;2022-10-19T11:13:04;17.65;;;9.43;;
65092;SDS011;52025;50.288;2.794;2022-10-19T11:15:33;13.88;;;7.07;;
65092;SDS011;52025;50.288;2.794;2022-10-19T11:18:20;16.40;;;8.75;;
65092;SDS011;52025;50.288;2.794;2022-10-19T11:24:21;15.27;;;7.68;;
65092;SDS011;52025;50.288;2.794;2022-10-19T11:26:22;16.42;;;8.73;;
65092;SDS011;52025;50.288;2.794;2022-10-19T11:31:17;17.63;;;8.90;;
65092;SDS011;52025;50.288;2.794;2022-10-19T11:36:12;13.67;;;6.90;;
65092;SDS011;52025;50.288;2.794;2022-10-19T11:51:24;8.18;;;3.38;;
65092;SDS011;52025;50.288;2.794;2022-10-19T11:54:03;9.40;;;4.25;;
65092;SDS011;52025;50.288;2.794;2022-10-19T12:03:59;9.07;;;3.37;;
65092;SDS011;52025;50.288;2.794;2022-10-19T12:14:12;8.52;;;3.47;;
65092;SDS011;52025;50.288;2.794;2022-10-19T12:16:40;5.80;;;2.33;;
65092;SDS011;52025;50.288;2.794;2022-10-19T12:19:08;4.15;;;1.77;;
65092;SDS011;52025;50.288;2.794;2022-10-19T12:21:37;5.57;;;2.78;;
65092;SDS011;52025;50.288;2.794;2022-10-19T12:24:04;4.03;;;1.95;;
65092;SDS011;52025;50.288;2.794;2022-10-19T12:26:31;5.45;;;2.03;;
65092;SDS011;52025;50.288;2.794;2022-10-19T12:28:59;5.32;;;2.90;;
65092;SDS011;52025;50.288;2.794;2022-10-19T12:31:25;5.20;;;2.60;;
65092;SDS011;52025;50.288;2.794;2022-10-19T12:34:09;10.75;;;4.78;;
65092;SDS011;52025;50.288;2.794;2022-10-19T12:36:46;6.60;;;3.28;;
65092;SDS011;52025;50.288;2.794;2022-10-19T12:44:21;9.85;;;3.30;;
65092;SDS011;52025;50.288;2.794;2022-10-19T12:52:01;2.30;;;1.35;;
65092;SDS011;52025;50.288;2.794;2022-10-19T12:54:27;7.65;;;2.85;;
65092;SDS011;52025;50.288;2.794;2022-10-19T12:56:54;6.32;;;3.13;;
65092;SDS011;52025;50.288;2.794;2022-10-19T12:59:24;4.07;;;2.00;;
65092;SDS011;52025;50.288;2.794;2022-10-19T13:01:49;4.60;;;2.75;;
65092;SDS011;52025;50.288;2.794;2022-10-19T13:06:44;5.13;;;2.30;;
65092;SDS011;52025;50.288;2.794;2022-10-19T13:17:03;4.70;;;1.90;;
65092;SDS011;52025;50.288;2.794;2022-10-19T13:19:28;5.53;;;1.98;;
65092;SDS011;52025;50.288;2.794;2022-10-19T13:29:25;5.60;;;2.05;;
65092;SDS011;52025;50.288;2.794;2022-10-19T13:31:50;1.77;;;0.88;;
65092;SDS011;52025;50.288;2.794;2022-10-19T13:34:16;4.90;;;1.63;;
65092;SDS011;52025;50.288;2.794;2022-10-19T13:37:00;3.58;;;1.70;;
65092;SDS011;52025;50.288;2.794;2022-10-19T13:39:26;4.07;;;1.52;;
65092;SDS011;52025;50.288;2.794;2022-10-19T13:41:52;4.10;;;1.63;;
65092;SDS011;52025;50.288;2.794;2022-10-19T13:44:19;3.78;;;1.83;;
65092;SDS011;52025;50.288;2.794;2022-10-19T13:52:00;2.17;;;1.20;;
65092;SDS011;52025;50.288;2.794;2022-10-19T13:54:53;4.47;;;2.00;;
65092;SDS011;52025;50.288;2.794;2022-10-19T14:02:30;2.80;;;1.58;;
65092;SDS011;52025;50.288;2.794;2022-10-19T14:05:08;3.28;;;1.45;;
65092;SDS011;52025;50.288;2.794;2022-10-19T14:07:38;4.80;;;1.75;;
65092;SDS011;52025;50.288;2.794;2022-10-19T14:10:06;3.55;;;1.50;;
65092;SDS011;52025;50.288;2.794;2022-10-19T14:12:39;4.47;;;1.42;;
65092;SDS011;52025;50.288;2.794;2022-10-19T14:15:38;3.58;;;1.42;;
65092;SDS011;52025;50.288;2.794;2022-10-19T14:17:57;3.15;;;1.42;;
65092;SDS011;52025;50.288;2.794;2022-10-19T14:20:27;3.20;;;1.60;;
65092;SDS011;52025;50.288;2.794;2022-10-19T14:22:53;3.08;;;1.30;;
65092;SDS011;52025;50.288;2.794;2022-10-19T14:25:19;3.75;;;1.77;;
65092;SDS011;52025;50.288;2.794;2022-10-19T14:27:45;2.45;;;1.17;;
65092;SDS011;52025;50.288;2.794;2022-10-19T14:30:21;4.18;;;1.75;;
65092;SDS011;52025;50.288;2.794;2022-10-19T14:32:47;3.55;;;1.40;;
65092;SDS011;52025;50.288;2.794;2022-10-19T14:35:32;3.25;;;1.48;;
65092;SDS011;52025;50.288;2.794;2022-10-19T14:37:58;3.88;;;1.95;;
65092;SDS011;52025;50.288;2.794;2022-10-19T14:40:28;2.53;;;1.17;;
65092;SDS011;52025;50.288;2.794;2022-10-19T14:42:54;2.17;;;1.13;;
65092;SDS011;52025;50.288;2.794;2022-10-19T14:45:25;3.45;;;1.65;;
65092;SDS011;52025;50.288;2.794;2022-10-19T14:50:16;3.13;;;1.23;;
65092;SDS011;52025;50.288;2.794;2022-10-19T14:52:41;1.15;;;0.60;;
65092;SDS011;52025;50.288;2.794;2022-10-19T14:55:08;2.95;;;1.30;;
65092;SDS011;52025;50.288;2.794;2022-10-19T14:57:36;4.53;;;1.58;;
65092;SDS011;52025;50.288;2.794;2022-10-19T15:00:04;3.17;;;1.20;;
65092;SDS011;52025;50.288;2.794;2022-10-19T15:02:41;4.45;;;1.83;;
65092;SDS011;52025;50.288;2.794;2022-10-19T15:05:17;4.70;;;1.80;;
65092;SDS011;52025;50.288;2.794;2022-10-19T15:07:44;2.05;;;0.75;;
65092;SDS011;52025;50.288;2.794;2022-10-19T15:10:23;2.47;;;1.20;;
65092;SDS011;52025;50.288;2.794;2022-10-19T15:12:49;2.95;;;0.85;;
65092;SDS011;52025;50.288;2.794;2022-10-19T15:15:21;2.22;;;1.05;;
65092;SDS011;52025;50.288;2.794;2022-10-19T15:17:53;4.25;;;1.48;;
65092;SDS011;52025;50.288;2.794;2022-10-19T15:22:58;1.63;;;0.90;;
65092;SDS011;52025;50.288;2.794;2022-10-19T15:25:25;3.83;;;1.70;;
65092;SDS011;52025;50.288;2.794;2022-10-19T15:27:51;2.85;;;1.55;;
65092;SDS011;52025;50.288;2.794;2022-10-19T15:32:47;3.70;;;1.55;;
65092;SDS011;52025;50.288;2.794;2022-10-19T15:37:42;3.33;;;1.60;;
65092;SDS011;52025;50.288;2.794;2022-10-19T15:40:08;2.90;;;1.25;;
65092;SDS011;52025;50.288;2.794;2022-10-19T15:42:40;3.42;;;1.83;;
65092;SDS011;52025;50.288;2.794;2022-10-19T15:45:27;3.13;;;1.55;;
65092;SDS011;52025;50.288;2.794;2022-10-19T15:50:36;2.40;;;0.93;;
65092;SDS011;52025;50.288;2.794;2022-10-19T15:53:01;3.33;;;1.35;;
65092;SDS011;52025;50.288;2.794;2022-10-19T15:55:26;3.90;;;1.77;;
65092;SDS011;52025;50.288;2.794;2022-10-19T15:57:57;4.57;;;1.90;;
65092;SDS011;52025;50.288;2.794;2022-10-19T16:00:22;4.30;;;1.70;;
65092;SDS011;52025;50.288;2.794;2022-10-19T16:02:47;1.52;;;0.82;;
65092;SDS011;52025;50.288;2.794;2022-10-19T16:05:13;3.50;;;1.60;;
65092;SDS011;52025;50.288;2.794;2022-10-19T16:07:39;2.83;;;1.20;;
65092;SDS011;52025;50.288;2.794;2022-10-19T16:10:05;3.63;;;1.63;;
65092;SDS011;52025;50.288;2.794;2022-10-19T16:12:30;2.95;;;1.42;;
65092;SDS011;52025;50.288;2.794;2022-10-19T16:14:56;3.00;;;1.60;;
65092;SDS011;52025;50.288;2.794;2022-10-19T16:17:21;2.35;;;1.17;;
65092;SDS011;52025;50.288;2.794;2022-10-19T16:19:46;2.78;;;1.08;;
65092;SDS011;52025;50.288;2.794;2022-10-19T16:22:12;3.50;;;1.40;;
65092;SDS011;52025;50.288;2.794;2022-10-19T16:24:38;2.78;;;1.25;;
65092;SDS011;52025;50.288;2.794;2022-10-19T16:27:03;3.22;;;1.50;;
65092;SDS011;52025;50.288;2.794;2022-10-19T16:29:29;2.05;;;0.95;;
65092;SDS011;52025;50.288;2.794;2022-10-19T16:31:54;4.63;;;1.67;;
65092;SDS011;52025;50.288;2.794;2022-10-19T16:34:19;4.45;;;1.30;;
65092;SDS011;52025;50.288;2.794;2022-10-19T16:36:45;3.40;;;1.37;;
65092;SDS011;52025;50.288;2.794;2022-10-19T16:39:10;5.20;;;1.90;;
65092;SDS011;52025;50.288;2.794;2022-10-19T16:41:35;3.95;;;1.67;;
65092;SDS011;52025;50.288;2.794;2022-10-19T16:44:00;3.88;;;1.55;;
65092;SDS011;52025;50.288;2.794;2022-10-19T16:46:26;4.30;;;1.75;;
65092;SDS011;52025;50.288;2.794;2022-10-19T16:48:51;3.53;;;1.63;;
65092;SDS011;52025;50.288;2.794;2022-10-19T16:51:21;4.05;;;2.08;;
65092;SDS011;52025;50.288;2.794;2022-10-19T16:53:49;4.22;;;2.25;;
65092;SDS011;52025;50.288;2.794;2022-10-19T16:56:15;3.55;;;1.52;;
65092;SDS011;52025;50.288;2.794;2022-10-19T16:58:40;5.00;;;1.75;;
65092;SDS011;52025;50.288;2.794;2022-10-19T17:01:06;3.45;;;1.90;;
65092;SDS011;52025;50.288;2.794;2022-10-19T17:03:32;1.98;;;1.15;;
65092;SDS011;52025;50.288;2.794;2022-10-19T17:05:57;2.53;;;1.00;;
65092;SDS011;52025;50.288;2.794;2022-10-19T17:08:22;3.40;;;1.17;;
65092;SDS011;52025;50.288;2.794;2022-10-19T17:10:47;2.70;;;1.43;;
65092;SDS011;52025;50.288;2.794;2022-10-19T17:13:12;2.03;;;0.63;;
65092;SDS011;52025;50.288;2.794;2022-10-19T17:15:38;5.88;;;2.60;;
65092;SDS011;52025;50.288;2.794;2022-10-19T17:18:03;2.50;;;1.02;;
65092;SDS011;52025;50.288;2.794;2022-10-19T17:20:30;4.03;;;1.85;;
65092;SDS011;52025;50.288;2.794;2022-10-19T17:22:57;6.35;;;2.03;;
65092;SDS011;52025;50.288;2.794;2022-10-19T17:25:22;4.25;;;1.25;;
65092;SDS011;52025;50.288;2.794;2022-10-19T17:27:50;4.20;;;1.90;;
65092;SDS011;52025;50.288;2.794;2022-10-19T17:30:16;4.78;;;2.10;;
65092;SDS011;52025;50.288;2.794;2022-10-19T17:32:41;2.28;;;1.35;;
65092;SDS011;52025;50.288;2.794;2022-10-19T17:35:06;3.35;;;1.60;;
65092;SDS011;52025;50.288;2.794;2022-10-19T17:37:32;1.63;;;0.77;;
65092;SDS011;52025;50.288;2.794;2022-10-19T17:39:57;2.65;;;1.30;;
65092;SDS011;52025;50.288;2.794;2022-10-19T17:42:22;2.53;;;1.33;;
65092;SDS011;52025;50.288;2.794;2022-10-19T17:44:48;1.17;;;0.65;;
65092;SDS011;52025;50.288;2.794;2022-10-19T17:47:13;14.27;;;4.93;;
65092;SDS011;52025;50.288;2.794;2022-10-19T17:49:38;28.47;;;10.67;;
65092;SDS011;52025;50.288;2.794;2022-10-19T17:52:03;24.10;;;8.68;;
65092;SDS011;52025;50.288;2.794;2022-10-19T17:54:29;49.78;;;20.58;;
65092;SDS011;52025;50.288;2.794;2022-10-19T17:56:54;93.97;;;31.88;;
65092;SDS011;52025;50.288;2.794;2022-10-19T17:59:19;79.15;;;27.27;;
65092;SDS011;52025;50.288;2.794;2022-10-19T18:01:44;55.50;;;22.07;;
65092;SDS011;52025;50.288;2.794;2022-10-19T18:04:10;28.23;;;11.68;;
65092;SDS011;52025;50.288;2.794;2022-10-19T18:06:35;20.83;;;7.93;;
65092;SDS011;52025;50.288;2.794;2022-10-19T18:09:01;44.17;;;13.18;;
65092;SDS011;52025;50.288;2.794;2022-10-19T18:11:31;23.15;;;9.70;;
65092;SDS011;52025;50.288;2.794;2022-10-19T18:13:59;14.85;;;5.20;;
65092;SDS011;52025;50.288;2.794;2022-10-19T18:16:34;26.38;;;8.43;;
65092;SDS011;52025;50.288;2.794;2022-10-19T18:19:00;13.43;;;6.57;;
65092;SDS011;52025;50.288;2.794;2022-10-19T18:21:26;15.95;;;5.28;;
65092;SDS011;52025;50.288;2.794;2022-10-19T18:23:54;10.45;;;4.95;;
65092;SDS011;52025;50.288;2.794;2022-10-19T18:26:21;18.85;;;6.38;;
65092;SDS011;52025;50.288;2.794;2022-10-19T18:28:47;8.38;;;3.38;;
65092;SDS011;52025;50.288;2.794;2022-10-19T18:31:19;15.10;;;4.20;;
65092;SDS011;52025;50.288;2.794;2022-10-19T18:33:44;20.52;;;5.93;;
65092;SDS011;52025;50.288;2.794;2022-10-19T18:36:10;14.18;;;5.13;;
65092;SDS011;52025;50.288;2.794;2022-10-19T18:38:36;7.15;;;3.88;;
65092;SDS011;52025;50.288;2.794;2022-10-19T18:41:02;5.20;;;2.92;;
65092;SDS011;52025;50.288;2.794;2022-10-19T18:43:27;5.03;;;2.53;;
65092;SDS011;52025;50.288;2.794;2022-10-19T18:45:53;6.40;;;2.80;;
65092;SDS011;52025;50.288;2.794;2022-10-19T18:48:19;5.88;;;2.80;;
65092;SDS011;52025;50.288;2.794;2022-10-19T18:50:45;7.13;;;2.53;;
65092;SDS011;52025;50.288;2.794;2022-10-19T18:53:10;12.43;;;4.60;;
65092;SDS011;52025;50.288;2.794;2022-10-19T18:55:35;7.63;;;3.03;;
65092;SDS011;52025;50.288;2.794;2022-10-19T18:58:00;5.45;;;2.92;;
65092;SDS011;52025;50.288;2.794;2022-10-19T19:00:26;5.27;;;2.80;;
65092;SDS011;52025;50.288;2.794;2022-10-19T19:02:52;14.27;;;5.57;;
65092;SDS011;52025;50.288;2.794;2022-10-19T19:05:17;14.27;;;6.88;;
65092;SDS011;52025;50.288;2.794;2022-10-19T19:07:43;8.98;;;4.85;;
65092;SDS011;52025;50.288;2.794;2022-10-19T19:10:08;5.80;;;2.63;;
65092;SDS011;52025;50.288;2.794;2022-10-19T19:12:33;6.22;;;2.30;;
65092;SDS011;52025;50.288;2.794;2022-10-19T19:14:58;5.53;;;2.55;;
65092;SDS011;52025;50.288;2.794;2022-10-19T19:17:24;5.15;;;2.45;;
65092;SDS011;52025;50.288;2.794;2022-10-19T19:19:49;6.10;;;3.30;;
65092;SDS011;52025;50.288;2.794;2022-10-19T19:22:14;4.20;;;2.38;;
65092;SDS011;52025;50.288;2.794;2022-10-19T19:24:40;5.78;;;3.00;;
65092;SDS011;52025;50.288;2.794;2022-10-19T19:27:06;5.45;;;4.10;;
65092;SDS011;52025;50.288;2.794;2022-10-19T19:29:31;6.13;;;3.15;;
65092;SDS011;52025;50.288;2.794;2022-10-19T19:31:56;5.07;;;2.47;;
65092;SDS011;52025;50.288;2.794;2022-10-19T19:34:22;8.20;;;2.63;;
65092;SDS011;52025;50.288;2.794;2022-10-19T19:36:49;7.30;;;2.72;;
65092;SDS011;52025;50.288;2.794;2022-10-19T19:39:18;5.32;;;2.70;;
65092;SDS011;52025;50.288;2.794;2022-10-19T19:41:44;3.78;;;2.10;;
65092;SDS011;52025;50.288;2.794;2022-10-19T19:44:12;5.45;;;2.60;;
65092;SDS011;52025;50.288;2.794;2022-10-19T19:46:39;5.75;;;2.95;;
65092;SDS011;52025;50.288;2.794;2022-10-19T19:49:08;4.80;;;2.55;;
65092;SDS011;52025;50.288;2.794;2022-10-19T19:51:33;5.05;;;2.60;;
65092;SDS011;52025;50.288;2.794;2022-10-19T19:53:59;5.40;;;2.83;;
65092;SDS011;52025;50.288;2.794;2022-10-19T19:56:24;5.03;;;2.70;;
65092;SDS011;52025;50.288;2.794;2022-10-19T19:58:54;5.75;;;2.75;;
65092;SDS011;52025;50.288;2.794;2022-10-19T20:01:20;5.47;;;2.70;;
65092;SDS011;52025;50.288;2.794;2022-10-19T20:03:45;4.93;;;2.88;;
65092;SDS011;52025;50.288;2.794;2022-10-19T20:06:11;6.28;;;3.22;;
65092;SDS011;52025;50.288;2.794;2022-10-19T20:08:37;7.30;;;3.33;;
65092;SDS011;52025;50.288;2.794;2022-10-19T20:11:04;8.57;;;5.05;;
65092;SDS011;52025;50.288;2.794;2022-10-19T20:13:29;6.07;;;3.35;;
65092;SDS011;52025;50.288;2.794;2022-10-19T20:15:54;7.05;;;3.20;;
65092;SDS011;52025;50.288;2.794;2022-10-19T20:18:20;5.70;;;2.88;;
65092;SDS011;52025;50.288;2.794;2022-10-19T20:20:46;6.15;;;2.90;;
65092;SDS011;52025;50.288;2.794;2022-10-19T20:23:11;7.03;;;2.58;;
65092;SDS011;52025;50.288;2.794;2022-10-19T20:25:37;6.05;;;3.30;;
65092;SDS011;52025;50.288;2.794;2022-10-19T20:28:02;5.43;;;3.10;;
65092;SDS011;52025;50.288;2.794;2022-10-19T20:30:29;5.95;;;2.80;;
65092;SDS011;52025;50.288;2.794;2022-10-19T20:32:54;4.63;;;2.30;;
65092;SDS011;52025;50.288;2.794;2022-10-19T20:35:20;5.00;;;2.55;;
65092;SDS011;52025;50.288;2.794;2022-10-19T20:37:48;6.00;;;2.63;;
65092;SDS011;52025;50.288;2.794;2022-10-19T20:40:14;5.55;;;2.50;;
65092;SDS011;52025;50.288;2.794;2022-10-19T20:42:40;5.45;;;2.42;;
65092;SDS011;52025;50.288;2.794;2022-10-19T20:45:06;6.45;;;3.58;;
65092;SDS011;52025;50.288;2.794;2022-10-19T20:47:31;5.90;;;3.00;;
65092;SDS011;52025;50.288;2.794;2022-10-19T20:50:00;5.38;;;2.88;;
65092;SDS011;52025;50.288;2.794;2022-10-19T20:52:25;5.18;;;2.90;;
65092;SDS011;52025;50.288;2.794;2022-10-19T20:54:50;5.57;;;2.67;;
65092;SDS011;52025;50.288;2.794;2022-10-19T20:57:16;5.28;;;2.33;;
65092;SDS011;52025;50.288;2.794;2022-10-19T20:59:41;6.32;;;2.75;;
65092;SDS011;52025;50.288;2.794;2022-10-19T21:02:08;5.10;;;2.45;;
65092;SDS011;52025;50.288;2.794;2022-10-19T21:04:33;5.93;;;2.78;;
65092;SDS011;52025;50.288;2.794;2022-10-19T21:06:58;5.57;;;3.08;;
65092;SDS011;52025;50.288;2.794;2022-10-19T21:09:24;4.45;;;2.65;;
65092;SDS011;52025;50.288;2.794;2022-10-19T21:11:50;5.35;;;2.70;;
65092;SDS011;52025;50.288;2.794;2022-10-19T21:14:16;5.88;;;2.80;;
65092;SDS011;52025;50.288;2.794;2022-10-19T21:16:42;7.22;;;2.95;;
65092;SDS011;52025;50.288;2.794;2022-10-19T21:19:10;6.90;;;3.03;;
65092;SDS011;52025;50.288;2.794;2022-10-19T21:21:36;6.57;;;3.33;;
65092;SDS011;52025;50.288;2.794;2022-10-19T21:24:12;5.57;;;3.25;;
65092;SDS011;52025;50.288;2.794;2022-10-19T21:26:37;7.45;;;3.28;;
65092;SDS011;52025;50.288;2.794;2022-10-19T21:29:03;5.47;;;2.88;;
65092;SDS011;52025;50.288;2.794;2022-10-19T21:31:29;8.20;;;3.15;;
65092;SDS011;52025;50.288;2.794;2022-10-19T21:33:55;6.75;;;2.95;;